sensor_id;sensor_type;location;lat;lon;timestamp;P1;durP1;ratioP1;P2;durP2;ratioP2
58101;SDS011;52034;51.926;6.320;2023-03-19T00:00:16;4.53;;;3.47;;
58101;SDS011;52034;51.926;6.320;2023-03-19T00:01:16;4.35;;;3.40;;
58101;SDS011;52034;51.926;6.320;2023-03-19T00:02:17;3.83;;;3.27;;
58101;SDS011;52034;51.926;6.320;2023-03-19T00:03:17;3.73;;;3.00;;
58101;SDS011;52034;51.926;6.320;2023-03-19T00:04:18;3.63;;;3.33;;
58101;SDS011;52034;51.926;6.320;2023-03-19T00:05:18;4.47;;;3.33;;
58101;SDS011;52034;51.926;6.320;2023-03-19T00:06:18;3.40;;;3.13;;
58101;SDS011;52034;51.926;6.320;2023-03-19T00:07:19;3.17;;;2.97;;
58101;SDS011;52034;51.926;6.320;2023-03-19T00:08:20;3.53;;;3.27;;
58101;SDS011;52034;51.926;6.320;2023-03-19T00:09:21;5.13;;;3.60;;
58101;SDS011;52034;51.926;6.320;2023-03-19T00:10:21;4.37;;;3.03;;
58101;SDS011;52034;51.926;6.320;2023-03-19T00:11:22;3.77;;;3.47;;
58101;SDS011;52034;51.926;6.320;2023-03-19T00:12:22;3.23;;;3.03;;
58101;SDS011;52034;51.926;6.320;2023-03-19T00:13:22;3.47;;;3.23;;
58101;SDS011;52034;51.926;6.320;2023-03-19T00:14:23;3.70;;;3.40;;
58101;SDS011;52034;51.926;6.320;2023-03-19T00:15:23;4.27;;;3.27;;
58101;SDS011;52034;51.926;6.320;2023-03-19T00:16:23;3.77;;;3.07;;
58101;SDS011;52034;51.926;6.320;2023-03-19T00:17:24;3.40;;;3.10;;
58101;SDS011;52034;51.926;6.320;2023-03-19T00:18:24;3.20;;;3.00;;
58101;SDS011;52034;51.926;6.320;2023-03-19T00:19:25;3.70;;;3.00;;
58101;SDS011;52034;51.926;6.320;2023-03-19T00:20:26;3.35;;;3.05;;
58101;SDS011;52034;51.926;6.320;2023-03-19T00:21:26;3.60;;;3.30;;
58101;SDS011;52034;51.926;6.320;2023-03-19T00:22:26;4.93;;;3.30;;
58101;SDS011;52034;51.926;6.320;2023-03-19T00:23:27;3.97;;;3.20;;
58101;SDS011;52034;51.926;6.320;2023-03-19T00:24:27;3.50;;;3.20;;
58101;SDS011;52034;51.926;6.320;2023-03-19T00:25:28;3.70;;;3.40;;
58101;SDS011;52034;51.926;6.320;2023-03-19T00:26:28;4.13;;;3.73;;
58101;SDS011;52034;51.926;6.320;2023-03-19T00:28:30;3.60;;;3.30;;
58101;SDS011;52034;51.926;6.320;2023-03-19T00:29:30;4.83;;;3.40;;
58101;SDS011;52034;51.926;6.320;2023-03-19T00:30:31;3.73;;;3.30;;
58101;SDS011;52034;51.926;6.320;2023-03-19T00:31:31;4.27;;;3.70;;
58101;SDS011;52034;51.926;6.320;2023-03-19T00:32:32;5.93;;;3.10;;
58101;SDS011;52034;51.926;6.320;2023-03-19T00:33:32;4.30;;;3.40;;
58101;SDS011;52034;51.926;6.320;2023-03-19T00:34:33;4.40;;;3.50;;
58101;SDS011;52034;51.926;6.320;2023-03-19T00:35:33;4.93;;;3.30;;
58101;SDS011;52034;51.926;6.320;2023-03-19T00:36:33;4.43;;;3.90;;
58101;SDS011;52034;51.926;6.320;2023-03-19T00:37:34;3.90;;;3.50;;
58101;SDS011;52034;51.926;6.320;2023-03-19T00:39:36;4.40;;;4.00;;
58101;SDS011;52034;51.926;6.320;2023-03-19T00:40:36;4.70;;;3.90;;
58101;SDS011;52034;51.926;6.320;2023-03-19T00:41:37;3.77;;;3.33;;
58101;SDS011;52034;51.926;6.320;2023-03-19T00:42:37;3.90;;;3.60;;
58101;SDS011;52034;51.926;6.320;2023-03-19T00:43:38;4.70;;;3.60;;
58101;SDS011;52034;51.926;6.320;2023-03-19T00:44:39;6.23;;;3.97;;
58101;SDS011;52034;51.926;6.320;2023-03-19T00:45:39;4.40;;;3.77;;
58101;SDS011;52034;51.926;6.320;2023-03-19T00:46:41;4.07;;;3.65;;
58101;SDS011;52034;51.926;6.320;2023-03-19T00:47:42;5.43;;;4.17;;
58101;SDS011;52034;51.926;6.320;2023-03-19T00:48:42;4.10;;;3.70;;
58101;SDS011;52034;51.926;6.320;2023-03-19T00:49:43;4.00;;;3.60;;
58101;SDS011;52034;51.926;6.320;2023-03-19T00:50:43;4.17;;;3.67;;
58101;SDS011;52034;51.926;6.320;2023-03-19T00:51:43;5.27;;;4.20;;
58101;SDS011;52034;51.926;6.320;2023-03-19T00:52:45;4.30;;;3.90;;
58101;SDS011;52034;51.926;6.320;2023-03-19T00:53:45;4.70;;;4.03;;
58101;SDS011;52034;51.926;6.320;2023-03-19T00:54:46;4.20;;;3.80;;
58101;SDS011;52034;51.926;6.320;2023-03-19T00:55:46;7.47;;;4.33;;
58101;SDS011;52034;51.926;6.320;2023-03-19T00:56:46;4.37;;;4.00;;
58101;SDS011;52034;51.926;6.320;2023-03-19T00:57:47;4.07;;;3.70;;
58101;SDS011;52034;51.926;6.320;2023-03-19T00:58:47;5.93;;;4.50;;
58101;SDS011;52034;51.926;6.320;2023-03-19T00:59:47;4.33;;;3.80;;
58101;SDS011;52034;51.926;6.320;2023-03-19T01:00:51;4.83;;;4.40;;
58101;SDS011;52034;51.926;6.320;2023-03-19T01:01:52;6.03;;;4.65;;
58101;SDS011;52034;51.926;6.320;2023-03-19T01:02:52;4.87;;;4.23;;
58101;SDS011;52034;51.926;6.320;2023-03-19T01:03:52;5.77;;;4.60;;
58101;SDS011;52034;51.926;6.320;2023-03-19T01:04:53;5.23;;;4.57;;
58101;SDS011;52034;51.926;6.320;2023-03-19T01:05:53;4.73;;;4.20;;
58101;SDS011;52034;51.926;6.320;2023-03-19T01:06:54;4.47;;;4.17;;
58101;SDS011;52034;51.926;6.320;2023-03-19T01:07:54;6.30;;;4.87;;
58101;SDS011;52034;51.926;6.320;2023-03-19T01:08:56;5.35;;;4.70;;
58101;SDS011;52034;51.926;6.320;2023-03-19T01:09:58;6.15;;;4.75;;
58101;SDS011;52034;51.926;6.320;2023-03-19T01:11:05;5.00;;;4.60;;
58101;SDS011;52034;51.926;6.320;2023-03-19T01:12:10;4.57;;;4.18;;
58101;SDS011;52034;51.926;6.320;2023-03-19T01:13:10;5.27;;;4.27;;
58101;SDS011;52034;51.926;6.320;2023-03-19T01:14:11;5.60;;;5.10;;
58101;SDS011;52034;51.926;6.320;2023-03-19T01:15:12;5.30;;;4.80;;
58101;SDS011;52034;51.926;6.320;2023-03-19T01:16:12;5.93;;;4.83;;
58101;SDS011;52034;51.926;6.320;2023-03-19T01:17:13;5.80;;;5.23;;
58101;SDS011;52034;51.926;6.320;2023-03-19T01:18:13;5.60;;;5.10;;
58101;SDS011;52034;51.926;6.320;2023-03-19T01:19:14;5.73;;;5.17;;
58101;SDS011;52034;51.926;6.320;2023-03-19T01:20:15;8.93;;;4.72;;
58101;SDS011;52034;51.926;6.320;2023-03-19T01:21:18;4.90;;;4.50;;
58101;SDS011;52034;51.926;6.320;2023-03-19T01:22:21;5.10;;;4.68;;
58101;SDS011;52034;51.926;6.320;2023-03-19T01:23:27;5.32;;;4.90;;
58101;SDS011;52034;51.926;6.320;2023-03-19T01:24:29;8.07;;;5.07;;
58101;SDS011;52034;51.926;6.320;2023-03-19T01:26:38;5.93;;;5.22;;
58101;SDS011;52034;51.926;6.320;2023-03-19T01:28:01;5.35;;;4.85;;
58101;SDS011;52034;51.926;6.320;2023-03-19T01:29:02;6.38;;;5.40;;
58101;SDS011;52034;51.926;6.320;2023-03-19T01:30:02;5.37;;;4.73;;
58101;SDS011;52034;51.926;6.320;2023-03-19T01:31:29;6.43;;;5.80;;
58101;SDS011;52034;51.926;6.320;2023-03-19T01:33:05;5.82;;;5.32;;
58101;SDS011;52034;51.926;6.320;2023-03-19T01:34:29;6.57;;;5.50;;
58101;SDS011;52034;51.926;6.320;2023-03-19T01:35:37;6.78;;;6.10;;
58101;SDS011;52034;51.926;6.320;2023-03-19T01:36:38;5.97;;;5.35;;
58101;SDS011;52034;51.926;6.320;2023-03-19T01:37:40;6.10;;;5.50;;
58101;SDS011;52034;51.926;6.320;2023-03-19T01:38:41;7.27;;;5.93;;
58101;SDS011;52034;51.926;6.320;2023-03-19T01:39:47;7.05;;;6.25;;
58101;SDS011;52034;51.926;6.320;2023-03-19T01:40:48;6.67;;;5.87;;
58101;SDS011;52034;51.926;6.320;2023-03-19T01:41:48;5.93;;;5.30;;
58101;SDS011;52034;51.926;6.320;2023-03-19T01:43:20;6.20;;;5.60;;
58101;SDS011;52034;51.926;6.320;2023-03-19T01:44:27;6.57;;;5.95;;
58101;SDS011;52034;51.926;6.320;2023-03-19T01:45:49;8.65;;;5.93;;
58101;SDS011;52034;51.926;6.320;2023-03-19T01:47:13;5.53;;;4.95;;
58101;SDS011;52034;51.926;6.320;2023-03-19T01:49:51;5.97;;;5.20;;
58101;SDS011;52034;51.926;6.320;2023-03-19T01:50:54;6.05;;;5.45;;
58101;SDS011;52034;51.926;6.320;2023-03-19T01:52:03;5.45;;;4.97;;
58101;SDS011;52034;51.926;6.320;2023-03-19T01:53:11;6.80;;;5.32;;
58101;SDS011;52034;51.926;6.320;2023-03-19T01:54:28;6.72;;;6.10;;
58101;SDS011;52034;51.926;6.320;2023-03-19T01:55:49;6.57;;;5.43;;
58101;SDS011;52034;51.926;6.320;2023-03-19T01:58:42;5.97;;;5.38;;
58101;SDS011;52034;51.926;6.320;2023-03-19T01:59:58;5.70;;;5.10;;
58101;SDS011;52034;51.926;6.320;2023-03-19T02:01:16;6.05;;;5.43;;
58101;SDS011;52034;51.926;6.320;2023-03-19T02:02:27;6.18;;;5.57;;
58101;SDS011;52034;51.926;6.320;2023-03-19T02:03:32;6.20;;;5.38;;
58101;SDS011;52034;51.926;6.320;2023-03-19T02:04:43;5.85;;;5.25;;
58101;SDS011;52034;51.926;6.320;2023-03-19T02:05:47;5.57;;;5.07;;
58101;SDS011;52034;51.926;6.320;2023-03-19T02:06:50;6.95;;;6.20;;
58101;SDS011;52034;51.926;6.320;2023-03-19T02:07:51;5.70;;;4.93;;
58101;SDS011;52034;51.926;6.320;2023-03-19T02:08:53;7.22;;;5.60;;
58101;SDS011;52034;51.926;6.320;2023-03-19T02:09:54;7.00;;;5.60;;
58101;SDS011;52034;51.926;6.320;2023-03-19T02:10:54;5.77;;;5.27;;
58101;SDS011;52034;51.926;6.320;2023-03-19T02:11:59;5.78;;;5.15;;
58101;SDS011;52034;51.926;6.320;2023-03-19T02:13:01;6.50;;;5.90;;
58101;SDS011;52034;51.926;6.320;2023-03-19T02:14:01;7.60;;;5.77;;
58101;SDS011;52034;51.926;6.320;2023-03-19T02:15:02;7.00;;;6.37;;
58101;SDS011;52034;51.926;6.320;2023-03-19T02:16:03;7.18;;;5.97;;
58101;SDS011;52034;51.926;6.320;2023-03-19T02:17:04;5.97;;;5.50;;
58101;SDS011;52034;51.926;6.320;2023-03-19T02:19:07;6.18;;;5.63;;
58101;SDS011;52034;51.926;6.320;2023-03-19T02:21:49;7.57;;;6.15;;
58101;SDS011;52034;51.926;6.320;2023-03-19T02:23:00;8.07;;;6.35;;
58101;SDS011;52034;51.926;6.320;2023-03-19T02:26:45;8.25;;;6.45;;
58101;SDS011;52034;51.926;6.320;2023-03-19T02:27:46;7.00;;;5.82;;
58101;SDS011;52034;51.926;6.320;2023-03-19T02:28:48;8.67;;;6.30;;
58101;SDS011;52034;51.926;6.320;2023-03-19T02:29:54;6.97;;;6.25;;
58101;SDS011;52034;51.926;6.320;2023-03-19T02:31:56;6.35;;;5.63;;
58101;SDS011;52034;51.926;6.320;2023-03-19T02:32:57;5.83;;;5.33;;
58101;SDS011;52034;51.926;6.320;2023-03-19T02:35:00;7.72;;;6.13;;
58101;SDS011;52034;51.926;6.320;2023-03-19T02:36:02;6.97;;;5.85;;
58101;SDS011;52034;51.926;6.320;2023-03-19T02:37:08;7.65;;;5.97;;
58101;SDS011;52034;51.926;6.320;2023-03-19T02:38:12;7.20;;;6.40;;
58101;SDS011;52034;51.926;6.320;2023-03-19T02:39:18;6.25;;;5.82;;
58101;SDS011;52034;51.926;6.320;2023-03-19T02:40:28;6.40;;;5.78;;
58101;SDS011;52034;51.926;6.320;2023-03-19T02:41:30;6.38;;;5.78;;
58101;SDS011;52034;51.926;6.320;2023-03-19T02:42:33;7.32;;;6.63;;
58101;SDS011;52034;51.926;6.320;2023-03-19T02:43:35;6.13;;;5.50;;
58101;SDS011;52034;51.926;6.320;2023-03-19T02:44:36;6.05;;;5.45;;
58101;SDS011;52034;51.926;6.320;2023-03-19T02:45:37;6.53;;;5.97;;
58101;SDS011;52034;51.926;6.320;2023-03-19T02:46:38;7.40;;;6.65;;
58101;SDS011;52034;51.926;6.320;2023-03-19T02:47:38;7.23;;;6.57;;
58101;SDS011;52034;51.926;6.320;2023-03-19T02:48:39;7.10;;;6.40;;
58101;SDS011;52034;51.926;6.320;2023-03-19T02:49:40;6.70;;;6.10;;
58101;SDS011;52034;51.926;6.320;2023-03-19T02:50:40;8.27;;;6.90;;
58101;SDS011;52034;51.926;6.320;2023-03-19T02:51:41;7.07;;;6.47;;
58101;SDS011;52034;51.926;6.320;2023-03-19T02:52:41;6.20;;;5.60;;
58101;SDS011;52034;51.926;6.320;2023-03-19T02:53:42;9.87;;;7.27;;
58101;SDS011;52034;51.926;6.320;2023-03-19T02:54:42;6.97;;;6.37;;
58101;SDS011;52034;51.926;6.320;2023-03-19T02:55:42;7.53;;;6.70;;
58101;SDS011;52034;51.926;6.320;2023-03-19T02:56:43;9.93;;;6.47;;
58101;SDS011;52034;51.926;6.320;2023-03-19T02:57:44;7.43;;;6.70;;
58101;SDS011;52034;51.926;6.320;2023-03-19T02:58:44;8.18;;;6.88;;
58101;SDS011;52034;51.926;6.320;2023-03-19T02:59:46;6.50;;;5.90;;
58101;SDS011;52034;51.926;6.320;2023-03-19T03:00:46;6.33;;;5.73;;
58101;SDS011;52034;51.926;6.320;2023-03-19T03:01:47;6.37;;;5.87;;
58101;SDS011;52034;51.926;6.320;2023-03-19T03:02:47;8.10;;;7.10;;
58101;SDS011;52034;51.926;6.320;2023-03-19T03:03:48;7.13;;;6.43;;
58101;SDS011;52034;51.926;6.320;2023-03-19T03:04:48;7.90;;;6.90;;
58101;SDS011;52034;51.926;6.320;2023-03-19T03:05:48;7.90;;;6.33;;
58101;SDS011;52034;51.926;6.320;2023-03-19T03:06:48;14.37;;;7.27;;
58101;SDS011;52034;51.926;6.320;2023-03-19T03:07:49;8.23;;;6.63;;
58101;SDS011;52034;51.926;6.320;2023-03-19T03:08:49;7.87;;;7.07;;
58101;SDS011;52034;51.926;6.320;2023-03-19T03:09:51;6.72;;;6.13;;
58101;SDS011;52034;51.926;6.320;2023-03-19T03:10:51;6.57;;;5.93;;
58101;SDS011;52034;51.926;6.320;2023-03-19T03:11:52;7.87;;;7.17;;
58101;SDS011;52034;51.926;6.320;2023-03-19T03:12:52;7.17;;;6.27;;
58101;SDS011;52034;51.926;6.320;2023-03-19T03:13:52;8.17;;;7.37;;
58101;SDS011;52034;51.926;6.320;2023-03-19T03:14:53;7.67;;;6.90;;
58101;SDS011;52034;51.926;6.320;2023-03-19T03:15:53;7.13;;;6.50;;
58101;SDS011;52034;51.926;6.320;2023-03-19T03:16:54;7.50;;;6.73;;
58101;SDS011;52034;51.926;6.320;2023-03-19T03:17:56;8.07;;;7.28;;
58101;SDS011;52034;51.926;6.320;2023-03-19T03:18:56;6.17;;;5.57;;
58101;SDS011;52034;51.926;6.320;2023-03-19T03:19:56;7.87;;;7.17;;
58101;SDS011;52034;51.926;6.320;2023-03-19T03:20:57;8.50;;;7.70;;
58101;SDS011;52034;51.926;6.320;2023-03-19T03:21:57;8.50;;;7.23;;
58101;SDS011;52034;51.926;6.320;2023-03-19T03:22:59;7.40;;;6.68;;
58101;SDS011;52034;51.926;6.320;2023-03-19T03:24:00;8.07;;;6.37;;
58101;SDS011;52034;51.926;6.320;2023-03-19T03:25:00;8.90;;;7.57;;
58101;SDS011;52034;51.926;6.320;2023-03-19T03:26:03;8.82;;;8.02;;
58101;SDS011;52034;51.926;6.320;2023-03-19T03:27:04;8.13;;;7.43;;
58101;SDS011;52034;51.926;6.320;2023-03-19T03:28:04;7.60;;;6.85;;
58101;SDS011;52034;51.926;6.320;2023-03-19T03:29:05;7.40;;;6.77;;
58101;SDS011;52034;51.926;6.320;2023-03-19T03:30:06;8.25;;;7.45;;
58101;SDS011;52034;51.926;6.320;2023-03-19T03:31:08;7.78;;;7.05;;
58101;SDS011;52034;51.926;6.320;2023-03-19T03:32:08;7.93;;;7.23;;
58101;SDS011;52034;51.926;6.320;2023-03-19T03:33:09;8.93;;;7.50;;
58101;SDS011;52034;51.926;6.320;2023-03-19T03:34:09;8.60;;;7.80;;
58101;SDS011;52034;51.926;6.320;2023-03-19T03:35:10;8.13;;;6.93;;
58101;SDS011;52034;51.926;6.320;2023-03-19T03:36:10;8.57;;;7.77;;
58101;SDS011;52034;51.926;6.320;2023-03-19T03:37:12;9.07;;;8.18;;
58101;SDS011;52034;51.926;6.320;2023-03-19T03:38:12;9.77;;;8.77;;
58101;SDS011;52034;51.926;6.320;2023-03-19T03:39:13;11.77;;;8.57;;
58101;SDS011;52034;51.926;6.320;2023-03-19T03:40:13;9.30;;;8.50;;
58101;SDS011;52034;51.926;6.320;2023-03-19T03:41:15;10.00;;;7.95;;
58101;SDS011;52034;51.926;6.320;2023-03-19T03:42:15;10.23;;;8.17;;
58101;SDS011;52034;51.926;6.320;2023-03-19T03:43:16;10.10;;;9.23;;
58101;SDS011;52034;51.926;6.320;2023-03-19T03:44:17;8.23;;;7.43;;
58101;SDS011;52034;51.926;6.320;2023-03-19T03:45:18;8.43;;;7.73;;
58101;SDS011;52034;51.926;6.320;2023-03-19T03:46:19;8.23;;;7.47;;
58101;SDS011;52034;51.926;6.320;2023-03-19T03:47:19;9.80;;;8.77;;
58101;SDS011;52034;51.926;6.320;2023-03-19T03:48:20;9.37;;;8.10;;
58101;SDS011;52034;51.926;6.320;2023-03-19T03:49:21;9.43;;;8.50;;
58101;SDS011;52034;51.926;6.320;2023-03-19T03:50:21;8.70;;;7.20;;
58101;SDS011;52034;51.926;6.320;2023-03-19T03:51:25;8.30;;;7.50;;
58101;SDS011;52034;51.926;6.320;2023-03-19T03:52:26;8.10;;;7.40;;
58101;SDS011;52034;51.926;6.320;2023-03-19T03:53:30;9.40;;;8.52;;
58101;SDS011;52034;51.926;6.320;2023-03-19T03:54:31;8.90;;;7.67;;
58101;SDS011;52034;51.926;6.320;2023-03-19T03:55:31;8.80;;;7.90;;
58101;SDS011;52034;51.926;6.320;2023-03-19T03:56:32;9.57;;;8.57;;
58101;SDS011;52034;51.926;6.320;2023-03-19T03:57:33;10.20;;;9.20;;
58101;SDS011;52034;51.926;6.320;2023-03-19T03:58:33;9.83;;;8.67;;
58101;SDS011;52034;51.926;6.320;2023-03-19T03:59:34;9.43;;;8.57;;
58101;SDS011;52034;51.926;6.320;2023-03-19T04:00:35;9.65;;;8.73;;
58101;SDS011;52034;51.926;6.320;2023-03-19T04:01:35;10.17;;;9.17;;
58101;SDS011;52034;51.926;6.320;2023-03-19T04:02:36;9.57;;;8.67;;
58101;SDS011;52034;51.926;6.320;2023-03-19T04:03:36;10.73;;;9.67;;
58101;SDS011;52034;51.926;6.320;2023-03-19T04:04:37;11.15;;;10.05;;
58101;SDS011;52034;51.926;6.320;2023-03-19T04:05:38;11.65;;;10.48;;
58101;SDS011;52034;51.926;6.320;2023-03-19T04:06:39;10.80;;;9.70;;
58101;SDS011;52034;51.926;6.320;2023-03-19T04:07:52;11.52;;;10.35;;
58101;SDS011;52034;51.926;6.320;2023-03-19T04:08:53;11.37;;;10.27;;
58101;SDS011;52034;51.926;6.320;2023-03-19T04:09:55;9.23;;;8.32;;
58101;SDS011;52034;51.926;6.320;2023-03-19T04:11:57;8.02;;;7.18;;
58101;SDS011;52034;51.926;6.320;2023-03-19T04:12:58;9.40;;;8.40;;
58101;SDS011;52034;51.926;6.320;2023-03-19T04:14:01;9.75;;;8.48;;
58101;SDS011;52034;51.926;6.320;2023-03-19T04:15:05;9.05;;;8.10;;
58101;SDS011;52034;51.926;6.320;2023-03-19T04:16:07;10.30;;;8.32;;
58101;SDS011;52034;51.926;6.320;2023-03-19T04:17:09;9.60;;;8.70;;
58101;SDS011;52034;51.926;6.320;2023-03-19T04:18:10;9.80;;;8.83;;
58101;SDS011;52034;51.926;6.320;2023-03-19T04:19:10;10.87;;;9.77;;
58101;SDS011;52034;51.926;6.320;2023-03-19T04:20:11;10.37;;;9.37;;
58101;SDS011;52034;51.926;6.320;2023-03-19T04:21:12;8.80;;;7.82;;
58101;SDS011;52034;51.926;6.320;2023-03-19T04:22:12;9.83;;;8.80;;
58101;SDS011;52034;51.926;6.320;2023-03-19T04:23:13;9.77;;;8.77;;
58101;SDS011;52034;51.926;6.320;2023-03-19T04:24:14;10.07;;;9.07;;
58101;SDS011;52034;51.926;6.320;2023-03-19T04:25:14;10.80;;;9.68;;
58101;SDS011;52034;51.926;6.320;2023-03-19T04:26:16;10.80;;;9.18;;
58101;SDS011;52034;51.926;6.320;2023-03-19T04:27:16;10.43;;;9.53;;
58101;SDS011;52034;51.926;6.320;2023-03-19T04:28:16;10.87;;;9.60;;
58101;SDS011;52034;51.926;6.320;2023-03-19T04:29:17;11.43;;;10.33;;
58101;SDS011;52034;51.926;6.320;2023-03-19T04:30:18;11.52;;;10.32;;
58101;SDS011;52034;51.926;6.320;2023-03-19T04:31:19;10.30;;;9.30;;
58101;SDS011;52034;51.926;6.320;2023-03-19T04:32:19;9.47;;;8.50;;
58101;SDS011;52034;51.926;6.320;2023-03-19T04:33:19;10.60;;;9.57;;
58101;SDS011;52034;51.926;6.320;2023-03-19T04:34:20;12.07;;;10.80;;
58101;SDS011;52034;51.926;6.320;2023-03-19T04:35:20;11.70;;;10.17;;
58101;SDS011;52034;51.926;6.320;2023-03-19T04:36:21;11.65;;;10.45;;
58101;SDS011;52034;51.926;6.320;2023-03-19T04:37:22;11.23;;;9.97;;
58101;SDS011;52034;51.926;6.320;2023-03-19T04:38:24;8.70;;;7.90;;
58101;SDS011;52034;51.926;6.320;2023-03-19T04:39:28;10.18;;;9.27;;
58101;SDS011;52034;51.926;6.320;2023-03-19T04:40:28;10.13;;;8.53;;
58101;SDS011;52034;51.926;6.320;2023-03-19T04:41:29;10.40;;;9.47;;
58101;SDS011;52034;51.926;6.320;2023-03-19T04:42:41;10.05;;;9.15;;
58101;SDS011;52034;51.926;6.320;2023-03-19T04:43:47;11.63;;;10.38;;
58101;SDS011;52034;51.926;6.320;2023-03-19T04:44:48;10.83;;;9.83;;
58101;SDS011;52034;51.926;6.320;2023-03-19T04:45:49;9.20;;;8.38;;
58101;SDS011;52034;51.926;6.320;2023-03-19T04:46:50;10.77;;;9.73;;
58101;SDS011;52034;51.926;6.320;2023-03-19T04:47:53;10.00;;;8.90;;
58101;SDS011;52034;51.926;6.320;2023-03-19T04:48:53;11.30;;;10.20;;
58101;SDS011;52034;51.926;6.320;2023-03-19T04:50:57;9.48;;;8.57;;
58101;SDS011;52034;51.926;6.320;2023-03-19T04:51:57;10.77;;;9.00;;
58101;SDS011;52034;51.926;6.320;2023-03-19T04:52:58;10.68;;;9.57;;
58101;SDS011;52034;51.926;6.320;2023-03-19T04:53:59;10.40;;;9.30;;
58101;SDS011;52034;51.926;6.320;2023-03-19T04:54:59;10.97;;;9.90;;
58101;SDS011;52034;51.926;6.320;2023-03-19T04:56:00;11.80;;;10.57;;
58101;SDS011;52034;51.926;6.320;2023-03-19T04:58:07;10.23;;;9.30;;
58101;SDS011;52034;51.926;6.320;2023-03-19T04:59:09;10.13;;;9.20;;
58101;SDS011;52034;51.926;6.320;2023-03-19T05:00:10;9.03;;;8.17;;
58101;SDS011;52034;51.926;6.320;2023-03-19T05:01:13;9.90;;;9.00;;
58101;SDS011;52034;51.926;6.320;2023-03-19T05:02:31;10.00;;;9.00;;
58101;SDS011;52034;51.926;6.320;2023-03-19T05:03:31;11.17;;;9.97;;
58101;SDS011;52034;51.926;6.320;2023-03-19T05:04:32;10.60;;;9.43;;
58101;SDS011;52034;51.926;6.320;2023-03-19T05:05:38;11.23;;;10.07;;
58101;SDS011;52034;51.926;6.320;2023-03-19T05:06:41;9.60;;;8.70;;
58101;SDS011;52034;51.926;6.320;2023-03-19T05:07:42;9.97;;;8.97;;
58101;SDS011;52034;51.926;6.320;2023-03-19T05:08:44;10.57;;;9.50;;
58101;SDS011;52034;51.926;6.320;2023-03-19T05:09:46;10.40;;;9.30;;
58101;SDS011;52034;51.926;6.320;2023-03-19T05:10:48;10.55;;;9.20;;
58101;SDS011;52034;51.926;6.320;2023-03-19T05:11:49;10.93;;;9.50;;
58101;SDS011;52034;51.926;6.320;2023-03-19T05:12:53;12.00;;;10.57;;
58101;SDS011;52034;51.926;6.320;2023-03-19T05:13:54;13.77;;;9.83;;
58101;SDS011;52034;51.926;6.320;2023-03-19T05:14:54;12.63;;;11.33;;
58101;SDS011;52034;51.926;6.320;2023-03-19T05:15:59;12.15;;;10.82;;
58101;SDS011;52034;51.926;6.320;2023-03-19T05:17:00;13.20;;;11.85;;
58101;SDS011;52034;51.926;6.320;2023-03-19T05:18:10;10.98;;;9.93;;
58101;SDS011;52034;51.926;6.320;2023-03-19T05:19:13;12.82;;;11.40;;
58101;SDS011;52034;51.926;6.320;2023-03-19T05:20:14;11.97;;;10.13;;
58101;SDS011;52034;51.926;6.320;2023-03-19T05:21:21;10.88;;;9.85;;
58101;SDS011;52034;51.926;6.320;2023-03-19T05:23:23;13.30;;;10.68;;
58101;SDS011;52034;51.926;6.320;2023-03-19T05:24:34;13.38;;;11.02;;
58101;SDS011;52034;51.926;6.320;2023-03-19T05:25:35;12.00;;;10.38;;
58101;SDS011;52034;51.926;6.320;2023-03-19T05:26:41;12.50;;;11.05;;
58101;SDS011;52034;51.926;6.320;2023-03-19T05:27:57;14.40;;;11.48;;
58101;SDS011;52034;51.926;6.320;2023-03-19T05:28:59;12.98;;;10.98;;
58101;SDS011;52034;51.926;6.320;2023-03-19T05:30:08;13.25;;;11.85;;
58101;SDS011;52034;51.926;6.320;2023-03-19T05:31:27;15.60;;;12.55;;
58101;SDS011;52034;51.926;6.320;2023-03-19T05:32:28;12.70;;;10.37;;
58101;SDS011;52034;51.926;6.320;2023-03-19T05:33:28;11.63;;;10.53;;
58101;SDS011;52034;51.926;6.320;2023-03-19T05:34:29;11.18;;;10.07;;
58101;SDS011;52034;51.926;6.320;2023-03-19T05:35:30;15.10;;;11.60;;
58101;SDS011;52034;51.926;6.320;2023-03-19T05:36:32;13.02;;;10.70;;
58101;SDS011;52034;51.926;6.320;2023-03-19T05:37:45;11.88;;;10.75;;
58101;SDS011;52034;51.926;6.320;2023-03-19T05:38:45;12.03;;;10.83;;
58101;SDS011;52034;51.926;6.320;2023-03-19T05:39:52;13.23;;;11.15;;
58101;SDS011;52034;51.926;6.320;2023-03-19T05:40:52;13.10;;;10.70;;
58101;SDS011;52034;51.926;6.320;2023-03-19T05:42:05;11.55;;;10.35;;
58101;SDS011;52034;51.926;6.320;2023-03-19T05:43:07;12.88;;;11.52;;
58101;SDS011;52034;51.926;6.320;2023-03-19T05:44:08;12.57;;;11.48;;
58101;SDS011;52034;51.926;6.320;2023-03-19T05:45:29;12.30;;;11.00;;
58101;SDS011;52034;51.926;6.320;2023-03-19T05:46:33;13.05;;;11.65;;
58101;SDS011;52034;51.926;6.320;2023-03-19T05:47:34;13.30;;;11.98;;
58101;SDS011;52034;51.926;6.320;2023-03-19T05:48:35;15.10;;;12.93;;
58101;SDS011;52034;51.926;6.320;2023-03-19T05:49:37;13.50;;;12.10;;
58101;SDS011;52034;51.926;6.320;2023-03-19T05:50:37;14.97;;;12.23;;
58101;SDS011;52034;51.926;6.320;2023-03-19T05:51:52;14.18;;;11.85;;
58101;SDS011;52034;51.926;6.320;2023-03-19T05:52:52;14.20;;;11.10;;
58101;SDS011;52034;51.926;6.320;2023-03-19T05:53:53;13.77;;;12.27;;
58101;SDS011;52034;51.926;6.320;2023-03-19T05:55:05;13.95;;;12.48;;
58101;SDS011;52034;51.926;6.320;2023-03-19T05:56:07;14.02;;;12.63;;
58101;SDS011;52034;51.926;6.320;2023-03-19T05:57:17;14.80;;;13.10;;
58101;SDS011;52034;51.926;6.320;2023-03-19T05:58:20;12.73;;;11.48;;
58101;SDS011;52034;51.926;6.320;2023-03-19T05:59:21;17.20;;;14.35;;
58101;SDS011;52034;51.926;6.320;2023-03-19T06:00:33;14.40;;;13.00;;
58101;SDS011;52034;51.926;6.320;2023-03-19T06:01:34;15.63;;;12.83;;
58101;SDS011;52034;51.926;6.320;2023-03-19T06:02:35;14.13;;;12.67;;
58101;SDS011;52034;51.926;6.320;2023-03-19T06:03:53;16.15;;;14.25;;
58101;SDS011;52034;51.926;6.320;2023-03-19T06:04:53;16.27;;;14.57;;
58101;SDS011;52034;51.926;6.320;2023-03-19T06:05:58;16.48;;;13.48;;
58101;SDS011;52034;51.926;6.320;2023-03-19T06:07:07;14.93;;;13.05;;
58101;SDS011;52034;51.926;6.320;2023-03-19T06:08:09;15.45;;;13.95;;
58101;SDS011;52034;51.926;6.320;2023-03-19T06:09:32;16.55;;;14.63;;
58101;SDS011;52034;51.926;6.320;2023-03-19T06:10:33;15.53;;;13.50;;
58101;SDS011;52034;51.926;6.320;2023-03-19T06:11:36;17.85;;;14.63;;
58101;SDS011;52034;51.926;6.320;2023-03-19T06:12:57;15.38;;;13.70;;
58101;SDS011;52034;51.926;6.320;2023-03-19T06:14:11;14.13;;;12.63;;
58101;SDS011;52034;51.926;6.320;2023-03-19T06:15:13;13.55;;;12.15;;
58101;SDS011;52034;51.926;6.320;2023-03-19T06:16:34;17.77;;;14.30;;
58101;SDS011;52034;51.926;6.320;2023-03-19T06:17:35;14.57;;;13.10;;
58101;SDS011;52034;51.926;6.320;2023-03-19T06:18:39;16.13;;;13.15;;
58101;SDS011;52034;51.926;6.320;2023-03-19T06:19:43;13.35;;;12.00;;
58101;SDS011;52034;51.926;6.320;2023-03-19T06:20:45;12.93;;;11.57;;
58101;SDS011;52034;51.926;6.320;2023-03-19T06:21:47;16.90;;;14.35;;
58101;SDS011;52034;51.926;6.320;2023-03-19T06:22:47;14.60;;;12.50;;
58101;SDS011;52034;51.926;6.320;2023-03-19T06:23:47;15.40;;;12.97;;
58101;SDS011;52034;51.926;6.320;2023-03-19T06:24:53;15.73;;;13.93;;
58101;SDS011;52034;51.926;6.320;2023-03-19T06:25:54;14.80;;;13.40;;
58101;SDS011;52034;51.926;6.320;2023-03-19T06:26:56;14.77;;;12.77;;
58101;SDS011;52034;51.926;6.320;2023-03-19T06:27:57;14.90;;;11.97;;
58101;SDS011;52034;51.926;6.320;2023-03-19T06:29:02;13.65;;;11.82;;
58101;SDS011;52034;51.926;6.320;2023-03-19T06:30:02;12.33;;;11.07;;
58101;SDS011;52034;51.926;6.320;2023-03-19T06:31:06;14.93;;;12.15;;
58101;SDS011;52034;51.926;6.320;2023-03-19T06:32:24;14.45;;;12.95;;
58101;SDS011;52034;51.926;6.320;2023-03-19T06:33:26;15.45;;;12.68;;
58101;SDS011;52034;51.926;6.320;2023-03-19T06:34:31;13.63;;;12.32;;